createdAt,value
2018-12-16T00:01:04.256Z,8.67
2018-12-16T00:03:32.630Z,8.43
2018-12-16T00:06:00.760Z,8.43
2018-12-16T00:08:28.986Z,9.37
2018-12-16T00:10:57.127Z,10.40
2018-12-16T00:13:25.241Z,8.77
2018-12-16T00:15:53.427Z,8.27
2018-12-16T00:18:21.538Z,8.80
2018-12-16T00:20:49.646Z,8.43
2018-12-16T00:23:18.057Z,9.53
2018-12-16T00:25:46.177Z,8.50
2018-12-16T00:28:14.294Z,9.77
2018-12-16T00:30:42.501Z,9.23
2018-12-16T00:33:10.669Z,8.23
2018-12-16T00:35:38.950Z,9.40
2018-12-16T00:38:07.674Z,9.70
2018-12-16T00:40:35.828Z,8.93
2018-12-16T00:43:04.106Z,8.07
2018-12-16T00:45:33.225Z,9.23
2018-12-16T00:48:01.350Z,8.77
2018-12-16T00:50:29.458Z,9.27
2018-12-16T00:52:57.603Z,8.53
2018-12-16T00:55:25.855Z,9.27
2018-12-16T00:57:54.002Z,9.53
2018-12-16T01:00:22.104Z,8.70
2018-12-16T01:02:50.218Z,8.40
2018-12-16T01:05:18.372Z,8.40
2018-12-16T01:07:46.477Z,9.47
2018-12-16T01:10:14.603Z,8.70
2018-12-16T01:12:42.738Z,9.13
2018-12-16T01:15:10.854Z,8.67
2018-12-16T01:17:39.016Z,8.37
2018-12-16T01:20:07.212Z,9.87
2018-12-16T01:22:35.340Z,8.07
2018-12-16T01:25:03.699Z,8.77
2018-12-16T01:27:31.793Z,9.00
2018-12-16T01:29:59.924Z,9.30
2018-12-16T01:32:28.042Z,8.87
2018-12-16T01:34:56.152Z,8.37
2018-12-16T01:37:24.286Z,7.37
2018-12-16T01:39:53.118Z,7.70
2018-12-16T01:42:21.234Z,9.57
2018-12-16T01:44:49.346Z,9.53
2018-12-16T01:47:17.539Z,8.67
2018-12-16T01:49:45.647Z,6.73
2018-12-16T01:52:13.756Z,9.07
2018-12-16T01:54:41.899Z,9.03
2018-12-16T01:57:10.014Z,7.63
2018-12-16T01:59:38.156Z,8.57
2018-12-16T02:02:06.807Z,7.93
2018-12-16T02:04:34.941Z,7.80
2018-12-16T02:07:03.051Z,8.77
2018-12-16T02:09:31.189Z,9.47
2018-12-16T02:11:59.335Z,7.93
2018-12-16T02:17:02.016Z,8.20
2018-12-16T02:19:30.138Z,8.33
2018-12-16T02:21:58.285Z,8.80
2018-12-16T02:24:26.416Z,8.53
2018-12-16T02:26:54.512Z,7.60
2018-12-16T02:29:23.017Z,8.40
2018-12-16T02:31:51.137Z,7.03
2018-12-16T02:34:19.275Z,7.60
2018-12-16T02:36:47.380Z,8.10
2018-12-16T02:39:15.782Z,7.33
2018-12-16T02:41:43.921Z,8.37
2018-12-16T02:44:12.033Z,8.60
2018-12-16T02:46:40.409Z,7.83
2018-12-16T02:49:08.573Z,8.13
2018-12-16T02:51:36.696Z,7.83
2018-12-16T02:54:04.807Z,7.23
2018-12-16T02:56:32.926Z,7.73
2018-12-16T02:59:01.133Z,7.87
2018-12-16T03:01:29.243Z,7.50
2018-12-16T03:03:57.397Z,7.43
2018-12-16T03:06:25.580Z,8.17
2018-12-16T03:08:53.694Z,7.90
2018-12-16T03:11:21.831Z,8.10
2018-12-16T03:13:49.966Z,7.73
2018-12-16T03:16:18.073Z,7.70
2018-12-16T03:18:46.201Z,7.97
2018-12-16T03:21:14.340Z,7.20
2018-12-16T03:23:42.446Z,7.90
2018-12-16T03:26:10.580Z,6.77
2018-12-16T03:28:38.727Z,7.93
2018-12-16T03:31:06.859Z,7.47
2018-12-16T03:33:34.965Z,7.90
2018-12-16T03:36:03.155Z,6.80
2018-12-16T03:38:31.275Z,8.87
2018-12-16T03:40:59.406Z,9.40
2018-12-16T03:43:27.539Z,7.63
2018-12-16T03:45:55.665Z,7.67
2018-12-16T03:48:23.782Z,7.73
2018-12-16T03:50:51.914Z,8.13
2018-12-16T03:53:20.461Z,7.27
2018-12-16T03:55:49.766Z,7.17
2018-12-16T03:58:17.877Z,7.93
2018-12-16T04:00:46.010Z,6.77
2018-12-16T04:03:14.176Z,7.23
2018-12-16T04:05:42.287Z,7.40
2018-12-16T04:08:10.403Z,8.07
2018-12-16T04:10:38.538Z,8.57
2018-12-16T04:13:08.609Z,7.77
2018-12-16T04:15:38.710Z,8.90
2018-12-16T04:18:08.783Z,6.27
2018-12-16T04:20:38.920Z,6.67
2018-12-16T04:23:09.002Z,7.10
2018-12-16T04:25:39.093Z,7.60
2018-12-16T04:28:09.427Z,8.40
2018-12-16T04:30:38.493Z,7.17
2018-12-16T04:33:06.602Z,7.53
2018-12-16T04:35:34.715Z,7.10
2018-12-16T04:38:02.861Z,7.47
2018-12-16T04:40:30.962Z,8.27
2018-12-16T04:42:59.084Z,8.53
2018-12-16T04:45:27.576Z,7.20
2018-12-16T04:47:55.757Z,7.30
2018-12-16T04:50:23.858Z,8.03
2018-12-16T04:52:51.999Z,8.47
2018-12-16T04:55:20.193Z,7.80
2018-12-16T04:57:48.307Z,8.83
2018-12-16T05:00:16.454Z,8.40
2018-12-16T05:02:44.872Z,7.73
2018-12-16T05:05:12.974Z,6.73
2018-12-16T05:07:41.112Z,7.87
2018-12-16T05:10:23.037Z,7.03
2018-12-16T05:12:51.181Z,7.70
2018-12-16T05:15:19.286Z,8.33
2018-12-16T05:17:47.434Z,7.07
2018-12-16T05:20:15.542Z,7.80
2018-12-16T05:22:43.659Z,8.40
2018-12-16T05:25:11.796Z,6.60
2018-12-16T05:27:39.913Z,7.60
2018-12-16T05:30:11.343Z,7.83
2018-12-16T05:32:39.580Z,7.83
2018-12-16T05:35:07.686Z,8.27
2018-12-16T05:37:35.817Z,8.30
2018-12-16T05:40:03.997Z,7.87
2018-12-16T05:42:32.103Z,7.57
2018-12-16T05:45:00.215Z,7.77
2018-12-16T05:47:28.376Z,8.03
2018-12-16T05:49:57.557Z,7.00
2018-12-16T05:52:25.733Z,8.00
2018-12-16T05:54:53.970Z,8.23
2018-12-16T05:57:22.089Z,7.70
2018-12-16T05:59:50.194Z,7.93
2018-12-16T06:02:18.480Z,7.57
2018-12-16T06:04:46.597Z,8.73
2018-12-16T06:07:14.751Z,5.93
2018-12-16T06:09:42.931Z,7.07
2018-12-16T06:12:11.038Z,7.63
2018-12-16T06:14:39.168Z,7.37
2018-12-16T06:17:07.285Z,8.77
2018-12-16T06:19:35.409Z,7.93
2018-12-16T06:22:03.553Z,9.67
2018-12-16T06:24:31.689Z,7.97
2018-12-16T06:26:59.805Z,7.33
2018-12-16T06:29:28.005Z,8.23
2018-12-16T06:31:56.178Z,8.03
2018-12-16T06:34:24.289Z,8.57
2018-12-16T06:36:52.429Z,8.87
2018-12-16T06:39:20.603Z,8.60
2018-12-16T06:41:48.859Z,8.00
2018-12-16T06:44:17.272Z,8.13
2018-12-16T06:46:45.364Z,8.07
2018-12-16T06:49:13.475Z,9.03
2018-12-16T06:51:41.609Z,7.53
2018-12-16T06:54:09.726Z,9.07
2018-12-16T06:56:37.858Z,8.27
2018-12-16T06:59:05.998Z,7.47
2018-12-16T07:01:34.108Z,8.23
2018-12-16T07:04:02.229Z,9.40
2018-12-16T07:06:30.351Z,8.73
2018-12-16T07:08:58.497Z,9.73
2018-12-16T07:11:26.609Z,9.00
2018-12-16T07:13:55.221Z,10.23
2018-12-16T07:16:23.414Z,10.20
2018-12-16T07:18:51.614Z,8.77
2018-12-16T07:21:19.733Z,8.80
2018-12-16T07:23:48.141Z,8.20
2018-12-16T07:26:16.332Z,9.40
2018-12-16T07:28:44.469Z,9.53
2018-12-16T07:31:13.658Z,9.90
2018-12-16T07:33:41.769Z,9.40
2018-12-16T07:36:09.907Z,9.40
2018-12-16T07:38:38.032Z,9.67
2018-12-16T07:41:06.174Z,9.50
2018-12-16T07:43:34.287Z,10.13
2018-12-16T07:46:02.440Z,9.43
2018-12-16T07:48:30.751Z,10.00
2018-12-16T07:50:58.979Z,10.37
2018-12-16T07:53:28.696Z,9.50
2018-12-16T07:55:57.090Z,9.20
2018-12-16T07:58:25.285Z,9.50
2018-12-16T08:00:53.445Z,8.93
2018-12-16T08:03:21.572Z,9.67
2018-12-16T08:05:49.750Z,10.43
2018-12-16T08:08:18.032Z,10.67
2018-12-16T08:10:46.206Z,10.43
2018-12-16T08:13:14.349Z,9.63
2018-12-16T08:15:42.466Z,8.83
2018-12-16T08:18:10.616Z,9.97
2018-12-16T08:23:52.612Z,9.57
2018-12-16T08:26:21.043Z,10.40
2018-12-16T08:28:49.477Z,9.07
2018-12-16T08:31:17.674Z,9.57
2018-12-16T08:33:45.794Z,11.13
2018-12-16T08:36:13.960Z,9.77
2018-12-16T08:38:42.083Z,10.53
2018-12-16T08:41:10.236Z,10.60
2018-12-16T08:43:38.892Z,9.53
2018-12-16T08:46:07.094Z,9.87
2018-12-16T08:48:36.157Z,11.67
2018-12-16T08:51:04.309Z,11.47
2018-12-16T08:53:32.462Z,10.03
2018-12-16T08:56:00.580Z,9.83
2018-12-16T08:58:28.705Z,11.67
2018-12-16T09:00:56.876Z,10.67
2018-12-16T09:03:24.992Z,10.80
2018-12-16T09:05:53.146Z,11.50
2018-12-16T09:08:21.581Z,10.07
2018-12-16T09:10:49.680Z,11.07
2018-12-16T09:13:28.389Z,9.90
2018-12-16T09:15:56.528Z,10.40
2018-12-16T09:18:24.658Z,10.87
2018-12-16T09:20:52.807Z,10.60
2018-12-16T09:23:20.948Z,10.17
2018-12-16T09:25:49.086Z,10.87
2018-12-16T09:28:17.210Z,11.17
2018-12-16T09:30:45.333Z,11.87
2018-12-16T09:33:13.681Z,10.67
2018-12-16T09:35:41.797Z,11.87
2018-12-16T09:38:09.926Z,11.93
2018-12-16T09:40:38.062Z,10.30
2018-12-16T09:43:06.271Z,10.47
2018-12-16T09:45:34.414Z,10.80
2018-12-16T09:48:02.586Z,12.00
2018-12-16T09:50:30.721Z,11.33
2018-12-16T09:53:00.217Z,11.07
2018-12-16T09:55:28.385Z,10.80
2018-12-16T09:57:56.529Z,12.20
2018-12-16T10:00:24.647Z,11.37
2018-12-16T10:02:52.789Z,11.90
2018-12-16T10:06:43.645Z,14.70
2018-12-16T10:09:11.863Z,10.50
2018-12-16T10:11:40.028Z,11.23
2018-12-16T10:14:08.175Z,13.77
2018-12-16T10:16:36.365Z,12.77
2018-12-16T10:19:04.578Z,15.80
2018-12-16T10:21:32.760Z,14.00
2018-12-16T10:24:00.872Z,12.37
2018-12-16T10:26:29.002Z,13.23
2018-12-16T10:28:57.139Z,12.00
2018-12-16T10:31:25.283Z,12.03
2018-12-16T10:33:53.497Z,11.60
2018-12-16T10:36:21.686Z,12.57
2018-12-16T10:38:49.800Z,13.47
2018-12-16T10:41:17.912Z,12.50
2018-12-16T10:43:46.072Z,10.87
2018-12-16T10:46:14.194Z,13.13
2018-12-16T10:48:42.347Z,11.70
2018-12-16T10:51:11.356Z,12.83
2018-12-16T10:53:39.477Z,12.40
2018-12-16T10:56:07.897Z,12.83
2018-12-16T10:58:36.048Z,11.30
2018-12-16T11:03:45.790Z,12.40
2018-12-16T11:06:13.992Z,12.00
2018-12-16T11:08:42.894Z,12.33
2018-12-16T11:11:11.038Z,10.97
2018-12-16T11:13:39.337Z,11.87
2018-12-16T11:16:07.458Z,9.83
2018-12-16T11:18:35.630Z,12.37
2018-12-16T11:21:03.899Z,12.30
2018-12-16T11:23:32.041Z,12.60
2018-12-16T11:26:00.158Z,11.67
2018-12-16T11:28:28.319Z,11.20
2018-12-16T11:30:56.460Z,11.70
2018-12-16T11:33:24.577Z,10.43
2018-12-16T11:35:52.762Z,11.07
2018-12-16T11:38:20.891Z,11.83
2018-12-16T11:40:48.997Z,10.87
2018-12-16T11:43:17.179Z,10.23
2018-12-16T11:45:45.368Z,9.53
2018-12-16T11:48:13.482Z,10.53
2018-12-16T11:50:41.624Z,11.43
2018-12-16T11:53:09.824Z,11.87
2018-12-16T11:55:39.126Z,10.43
2018-12-16T11:58:07.279Z,11.97
2018-12-16T12:00:35.402Z,11.10
2018-12-16T12:03:03.551Z,10.90
2018-12-16T12:05:31.690Z,11.70
2018-12-16T12:07:59.886Z,11.33
2018-12-16T12:10:29.022Z,10.10
2018-12-16T12:12:57.166Z,11.13
2018-12-16T12:15:25.329Z,10.67
2018-12-16T12:17:53.527Z,11.40
2018-12-16T12:20:21.643Z,10.90
2018-12-16T12:22:49.798Z,11.43
2018-12-16T12:25:20.008Z,12.80
2018-12-16T12:27:48.067Z,10.17
2018-12-16T12:30:16.230Z,11.60
2018-12-16T12:32:44.352Z,11.00
2018-12-16T12:35:12.616Z,10.77
2018-12-16T12:37:40.894Z,10.33
2018-12-16T12:40:08.987Z,11.17
2018-12-16T12:42:37.097Z,10.63
2018-12-16T12:45:06.885Z,10.27
2018-12-16T12:47:35.020Z,11.07
2018-12-16T12:50:03.148Z,10.47
2018-12-16T12:52:31.290Z,10.40
2018-12-16T12:54:59.410Z,11.47
2018-12-16T12:57:27.548Z,11.20
2018-12-16T12:59:55.710Z,10.50
2018-12-16T13:02:23.829Z,11.13
2018-12-16T13:04:51.949Z,10.40
2018-12-16T13:07:20.081Z,10.17
2018-12-16T13:09:48.219Z,10.67
2018-12-16T13:12:16.338Z,9.80
2018-12-16T13:14:44.505Z,11.57
2018-12-16T13:17:12.620Z,12.33
2018-12-16T13:19:40.740Z,11.30
2018-12-16T13:22:08.880Z,11.40
2018-12-16T13:24:41.004Z,10.63
2018-12-16T13:27:09.132Z,10.17
2018-12-16T13:29:37.290Z,11.43
2018-12-16T13:32:05.541Z,11.33
2018-12-16T13:34:33.655Z,10.93
2018-12-16T13:37:01.831Z,11.20
2018-12-16T13:39:29.956Z,9.33
2018-12-16T13:41:58.070Z,9.47
2018-12-16T13:44:26.263Z,12.20
2018-12-16T13:46:54.379Z,10.73
2018-12-16T13:49:22.527Z,9.63
2018-12-16T13:51:50.671Z,10.53
2018-12-16T13:54:18.853Z,10.13
2018-12-16T13:56:46.997Z,11.17
2018-12-16T13:59:15.138Z,11.57
2018-12-16T14:01:43.272Z,12.23
2018-12-16T14:04:11.402Z,11.00
2018-12-16T14:06:39.561Z,10.27
2018-12-16T14:09:07.680Z,12.33
2018-12-16T14:11:35.813Z,11.77
2018-12-16T14:14:03.944Z,10.47
2018-12-16T14:16:32.066Z,10.27
2018-12-16T14:19:00.217Z,11.90
2018-12-16T14:21:28.348Z,10.23
2018-12-16T14:23:56.464Z,10.90
2018-12-16T14:27:43.151Z,10.73
2018-12-16T14:30:12.087Z,11.03
2018-12-16T14:32:40.257Z,11.33
2018-12-16T14:35:11.425Z,10.23
2018-12-16T14:37:39.549Z,10.48
2018-12-16T14:40:08.437Z,12.05
2018-12-16T14:42:36.583Z,11.05
2018-12-16T14:45:07.479Z,9.73
2018-12-16T14:47:35.632Z,10.00
2018-12-16T14:50:06.259Z,12.68
2018-12-16T14:52:34.389Z,11.68
2018-12-16T14:55:02.538Z,11.12
2018-12-16T14:57:30.682Z,13.38
2018-12-16T14:59:58.828Z,12.60
2018-12-16T15:02:27.054Z,11.35
2018-12-16T15:04:55.198Z,11.10
2018-12-16T15:07:23.321Z,11.57
2018-12-16T15:09:51.474Z,10.93
2018-12-16T15:12:21.163Z,11.43
2018-12-16T15:14:50.101Z,12.13
2018-12-16T15:17:18.260Z,11.33
2018-12-16T15:19:46.432Z,11.55
2018-12-16T15:22:14.641Z,11.22
2018-12-16T15:24:42.776Z,12.33
2018-12-16T15:27:11.138Z,11.73
2018-12-16T15:29:39.295Z,11.73
2018-12-16T15:32:07.485Z,11.97
2018-12-16T15:34:35.641Z,12.43
2018-12-16T15:37:03.933Z,11.63
2018-12-16T15:39:32.078Z,12.23
2018-12-16T15:42:00.230Z,11.22
2018-12-16T15:44:28.350Z,12.75
2018-12-16T15:46:56.577Z,13.03
2018-12-16T15:49:24.743Z,12.93
2018-12-16T15:51:53.116Z,13.85
2018-12-16T15:54:21.242Z,12.20
2018-12-16T15:56:49.347Z,14.90
2018-12-16T15:59:17.511Z,12.73
2018-12-16T16:01:45.619Z,14.20
2018-12-16T16:04:13.757Z,13.17
2018-12-16T16:06:41.937Z,11.93
2018-12-16T16:09:10.083Z,13.50
2018-12-16T16:11:38.441Z,13.57
2018-12-16T16:14:06.682Z,14.20
2018-12-16T16:16:34.818Z,12.70
2018-12-16T16:19:03.594Z,14.10
2018-12-16T16:21:31.766Z,13.62
2018-12-16T16:23:59.889Z,13.32
2018-12-16T16:26:28.111Z,13.00
2018-12-16T16:28:56.393Z,13.70
2018-12-16T16:31:24.533Z,15.20
2018-12-16T16:33:52.670Z,13.85
2018-12-16T16:36:20.795Z,13.38
2018-12-16T16:38:48.939Z,13.65
2018-12-16T16:41:17.145Z,13.28
2018-12-16T16:43:45.276Z,12.65
2018-12-16T16:46:13.402Z,13.88
2018-12-16T16:48:41.568Z,15.60
2018-12-16T16:51:09.685Z,15.13
2018-12-16T16:53:37.843Z,14.35
2018-12-16T16:56:06.004Z,13.40
2018-12-16T16:58:34.126Z,14.70
2018-12-16T17:01:02.344Z,15.70
2018-12-16T17:03:30.502Z,15.13
2018-12-16T17:05:58.917Z,15.97
2018-12-16T17:08:27.115Z,14.50
2018-12-16T17:10:57.598Z,15.67
2018-12-16T17:13:25.814Z,15.60
2018-12-16T17:15:54.005Z,16.63
2018-12-16T17:18:22.209Z,16.07
2018-12-16T17:20:50.472Z,14.43
2018-12-16T17:23:18.584Z,16.13
2018-12-16T17:25:48.472Z,15.83
2018-12-16T17:28:17.033Z,16.77
2018-12-16T17:30:45.162Z,18.23
2018-12-16T17:33:13.327Z,16.20
2018-12-16T17:35:41.530Z,14.70
2018-12-16T17:38:09.652Z,17.32
2018-12-16T17:40:37.829Z,15.72
2018-12-16T17:43:06.066Z,15.78
2018-12-16T17:45:34.181Z,17.35
2018-12-16T17:48:02.349Z,17.37
2018-12-16T17:50:31.380Z,17.48
2018-12-16T17:52:59.541Z,16.93
2018-12-16T17:55:27.741Z,16.87
2018-12-16T17:57:55.888Z,20.60
2018-12-16T18:00:24.100Z,19.00
2018-12-16T18:02:52.219Z,19.17
2018-12-16T18:05:20.408Z,18.07
2018-12-16T18:07:48.575Z,19.63
2018-12-16T18:10:17.312Z,18.63
2018-12-16T18:12:45.484Z,18.77
2018-12-16T18:15:13.609Z,17.90
2018-12-16T18:17:41.781Z,20.33
2018-12-16T18:20:09.905Z,19.33
2018-12-16T18:22:38.036Z,18.03
2018-12-16T18:25:06.237Z,18.93
2018-12-16T18:27:34.359Z,21.00
2018-12-16T18:30:04.315Z,17.90
2018-12-16T18:32:32.439Z,19.83
2018-12-16T18:35:00.603Z,20.57
2018-12-16T18:37:28.852Z,19.85
2018-12-16T18:39:57.059Z,20.37
2018-12-16T18:42:25.207Z,19.50
2018-12-16T18:44:53.328Z,19.85
2018-12-16T18:47:21.481Z,21.05
2018-12-16T18:49:49.605Z,20.05
2018-12-16T18:52:17.745Z,18.35
2018-12-16T18:54:45.865Z,20.55
2018-12-16T18:57:13.990Z,22.22
2018-12-16T18:59:42.373Z,19.45
2018-12-16T19:02:10.481Z,20.75
2018-12-16T19:04:38.853Z,20.92
2018-12-16T19:07:06.966Z,20.80
2018-12-16T19:09:35.129Z,21.93
2018-12-16T19:12:03.302Z,21.50
2018-12-16T19:14:33.096Z,21.37
2018-12-16T19:17:01.260Z,24.40
2018-12-16T19:19:29.673Z,22.07
2018-12-16T19:21:57.779Z,20.52
2018-12-16T19:24:26.055Z,21.82
2018-12-16T19:26:58.259Z,23.10
2018-12-16T19:29:24.371Z,23.18
2018-12-16T19:31:52.523Z,23.02
2018-12-16T19:34:20.686Z,22.67
2018-12-16T19:36:48.847Z,22.58
2018-12-16T19:39:17.377Z,22.20
2018-12-16T19:41:45.514Z,23.30
2018-12-16T19:44:13.672Z,22.98
2018-12-16T19:46:41.794Z,24.37
2018-12-16T19:49:10.009Z,23.42
2018-12-16T19:51:39.024Z,24.67
2018-12-16T19:54:07.212Z,24.95
2018-12-16T19:56:35.356Z,24.27
2018-12-16T19:59:03.534Z,23.12
2018-12-16T20:01:31.688Z,23.62
2018-12-16T20:04:05.550Z,26.25
2018-12-16T20:06:39.602Z,25.05
2018-12-16T20:09:07.802Z,22.98
2018-12-16T20:11:35.969Z,25.30
2018-12-16T20:14:04.071Z,25.88
2018-12-16T20:16:32.232Z,24.82
2018-12-16T20:19:00.375Z,24.72
2018-12-16T20:21:28.509Z,24.10
2018-12-16T20:23:56.664Z,27.03
2018-12-16T20:26:24.954Z,26.80
2018-12-16T20:28:53.101Z,27.67
2018-12-16T20:31:21.269Z,28.07
2018-12-16T20:33:49.390Z,29.77
2018-12-16T20:36:17.525Z,28.10
2018-12-16T20:38:45.706Z,28.33
2018-12-16T20:41:14.448Z,25.73
2018-12-16T20:43:42.598Z,28.85
2018-12-16T20:46:10.794Z,28.02
2018-12-16T20:48:38.933Z,29.05
2018-12-16T20:51:07.074Z,28.27
2018-12-16T20:53:35.201Z,27.67
2018-12-16T20:56:03.344Z,30.32
2018-12-16T20:58:31.517Z,29.48
2018-12-16T21:02:33.549Z,29.07
2018-12-16T21:05:01.896Z,32.10
2018-12-16T21:07:30.101Z,31.00
2018-12-16T21:09:58.255Z,31.77
2018-12-16T21:12:32.035Z,30.63
2018-12-16T21:15:06.000Z,29.57
2018-12-16T21:17:39.699Z,30.57
2018-12-16T21:20:08.139Z,29.33
2018-12-16T21:22:36.269Z,31.20
2018-12-16T21:25:05.972Z,33.13
2018-12-16T21:27:35.597Z,29.73
2018-12-16T21:30:07.854Z,31.43
2018-12-16T21:32:35.993Z,31.10
2018-12-16T21:35:06.078Z,33.97
2018-12-16T21:37:34.219Z,33.27
2018-12-16T21:40:05.983Z,32.30
2018-12-16T21:42:34.103Z,33.93
2018-12-16T21:45:02.218Z,33.73
2018-12-16T21:47:30.778Z,33.63
2018-12-16T21:49:58.922Z,35.67
2018-12-16T21:52:27.043Z,34.83
2018-12-16T21:54:55.258Z,34.27
2018-12-16T21:57:23.379Z,32.20
2018-12-16T21:59:52.982Z,33.70
2018-12-16T22:02:21.142Z,36.40
2018-12-16T22:04:49.627Z,37.43
2018-12-16T22:07:17.982Z,36.27
2018-12-16T22:09:46.094Z,37.77
2018-12-16T22:12:14.218Z,36.33
2018-12-16T22:14:43.620Z,37.93
2018-12-16T22:17:11.743Z,35.87
2018-12-16T22:19:39.885Z,36.57
2018-12-16T22:22:08.573Z,38.47
2018-12-16T22:24:36.775Z,37.50
2018-12-16T22:27:04.894Z,37.00
2018-12-16T22:29:33.050Z,39.70
2018-12-16T22:32:01.176Z,41.37
2018-12-16T22:34:29.376Z,41.03
2018-12-16T22:36:57.557Z,38.77
2018-12-16T22:39:25.681Z,40.50
2018-12-16T22:42:07.258Z,40.00
2018-12-16T22:44:35.446Z,42.87
2018-12-16T22:47:03.570Z,42.67
2018-12-16T22:49:31.690Z,38.23
2018-12-16T22:52:05.468Z,41.07
2018-12-16T22:54:33.675Z,38.70
2018-12-16T22:57:01.851Z,42.97
2018-12-16T22:59:30.075Z,44.17
2018-12-16T23:01:58.246Z,42.93
2018-12-16T23:04:26.425Z,43.50
2018-12-16T23:06:54.568Z,46.53
2018-12-16T23:09:22.712Z,42.73
2018-12-16T23:11:50.887Z,45.40
2018-12-16T23:14:19.617Z,43.23
2018-12-16T23:16:47.741Z,44.67
2018-12-16T23:19:15.893Z,45.00
2018-12-16T23:21:44.511Z,44.00
2018-12-16T23:24:12.721Z,41.73
2018-12-16T23:26:40.836Z,45.10
2018-12-16T23:29:09.011Z,46.50
2018-12-16T23:31:37.217Z,46.17
2018-12-16T23:34:05.331Z,46.50
2018-12-16T23:36:33.478Z,45.10
2018-12-16T23:39:01.686Z,48.57
2018-12-16T23:41:29.880Z,45.93
2018-12-16T23:43:58.112Z,45.60
2018-12-16T23:46:26.229Z,45.13
2018-12-16T23:48:54.404Z,47.97
2018-12-16T23:51:22.589Z,47.27
2018-12-16T23:53:50.767Z,48.03
2018-12-16T23:56:18.972Z,45.50
2018-12-16T23:58:47.185Z,49.10
